Time;durP1;ratioP1;P1;durP2;ratioP2;P2;SDS_P1;SDS_P2;PMS_P1;PMS_P2;Temp;Humidity;BMP_temperature;BMP_pressure;BME280_temperature;BME280_humidity;BME280_pressure;Samples;Min_cycle;Max_cycle;Signal;HPM_P1;HPM_P2
2021/10/07 00:01:17;;;;;;;2.80;1.88;;;23.60;68.60;;;;;;5052942;28;20103;-70
2021/10/07 00:03:44;;;;;;;4.78;2.45;;;23.40;70.10;;;;;;5052899;28;20218;-69
2021/10/07 00:06:12;;;;;;;3.38;2.20;;;23.60;70.70;;;;;;5051721;28;20032;-71
2021/10/07 00:08:40;;;;;;;7.07;2.70;;;23.70;69.00;;;;;;5052831;28;20478;-70
2021/10/07 00:11:07;;;;;;;3.10;2.05;;;24.00;69.40;;;;;;5051597;28;20115;-70
2021/10/07 00:13:34;;;;;;;3.50;2.20;;;24.30;70.60;;;;;;5052724;28;20104;-68
2021/10/07 00:16:02;;;;;;;3.90;2.25;;;24.50;68.10;;;;;;5052733;28;20468;-68
2021/10/07 00:18:34;;;;;;;2.70;2.20;;;24.70;70.10;;;;;;5051679;28;20028;-68
2021/10/07 00:21:02;;;;;;;2.63;2.00;;;25.00;68.90;;;;;;5052739;28;20085;-69
2021/10/07 00:23:32;;;;;;;3.05;2.35;;;25.20;68.70;;;;;;5052805;28;20021;-70
2021/10/07 00:25:59;;;;;;;3.15;2.40;;;25.60;69.50;;;;;;5051505;28;20466;-70
2021/10/07 00:28:30;;;;;;;3.30;2.20;;;25.80;66.90;;;;;;5052698;28;20021;-71
2021/10/07 00:31:00;;;;;;;4.57;2.40;;;25.30;66.80;;;;;;5056154;28;20017;-70
2021/10/07 00:33:51;;;;;;;2.92;1.80;;;24.70;66.60;;;;;;5055625;28;20553;-69
2021/10/07 00:36:27;;;;;;;3.22;1.80;;;24.40;68.00;;;;;;5056548;28;20029;-70
2021/10/07 00:39:03;;;;;;;2.22;1.60;;;24.40;68.20;;;;;;5055592;28;20119;-71
2021/10/07 00:41:39;;;;;;;2.60;1.73;;;25.10;68.60;;;;;;5056625;28;20367;-71
2021/10/07 00:44:09;;;;;;;2.67;1.95;;;25.50;67.80;;;;;;5056711;28;20078;-71
2021/10/07 00:46:59;;;;;;;2.53;2.13;;;25.80;66.70;;;;;;5055288;28;20029;-70
2021/10/07 00:49:27;;;;;;;3.40;2.30;;;26.20;67.60;;;;;;5056777;28;20075;-71
2021/10/07 00:51:55;;;;;;;3.60;2.63;;;26.50;65.40;;;;;;5056641;28;20120;-71
2021/10/07 00:54:25;;;;;;;3.22;2.35;;;26.50;65.70;;;;;;5055198;28;20067;-70
2021/10/07 00:56:54;;;;;;;2.75;2.20;;;26.50;65.20;;;;;;5056647;28;20029;-70
2021/10/07 00:59:22;;;;;;;3.50;2.38;;;26.70;65.50;;;;;;5056342;28;20053;-71
2021/10/07 01:01:49;;;;;;;3.15;2.25;;;26.80;65.70;;;;;;5056240;28;20361;-71
2021/10/07 01:04:17;;;;;;;3.08;2.38;;;26.90;64.90;;;;;;5056333;28;20013;-71
2021/10/07 01:06:44;;;;;;;4.45;2.40;;;27.00;65.30;;;;;;5056215;28;20017;-71
2021/10/07 01:09:12;;;;;;;4.57;2.13;;;27.10;64.90;;;;;;5056166;28;20017;-71
2021/10/07 01:11:40;;;;;;;2.47;2.13;;;27.20;63.10;;;;;;5056181;28;20538;-70
2021/10/07 01:14:07;;;;;;;3.03;1.98;;;27.20;62.90;;;;;;5055967;28;20099;-71
2021/10/07 01:16:38;;;;;;;4.22;1.80;;;27.30;63.70;;;;;;5055673;28;20080;-71
2021/10/07 01:19:05;;;;;;;2.08;1.90;;;27.40;63.40;;;;;;5055944;28;20029;-72
2021/10/07 01:21:32;;;;;;;4.93;2.42;;;27.40;63.70;;;;;;5055789;28;20065;-71
2021/10/07 01:24:00;;;;;;;2.97;2.22;;;27.70;63.80;;;;;;5055902;28;20106;-70
2021/10/07 01:26:28;;;;;;;3.08;2.00;;;27.70;62.20;;;;;;5054788;28;20025;-71
2021/10/07 01:28:55;;;;;;;2.90;2.53;;;27.80;62.50;;;;;;5054806;28;20021;-72
2021/10/07 01:31:22;;;;;;;4.50;2.47;;;27.80;63.30;;;;;;5055707;28;20433;-72
2021/10/07 01:33:50;;;;;;;4.75;2.35;;;28.10;63.80;;;;;;5055639;28;20030;-71
2021/10/07 01:36:17;;;;;;;5.00;2.55;;;28.20;62.70;;;;;;5055826;28;20473;-71
2021/10/07 01:38:44;;;;;;;2.88;2.30;;;28.30;61.80;;;;;;5055427;28;20485;-71
2021/10/07 01:41:12;;;;;;;3.00;2.28;;;28.20;61.90;;;;;;5053517;28;20029;-71
2021/10/07 01:43:39;;;;;;;4.43;2.58;;;28.60;62.20;;;;;;5054056;28;20070;-71
2021/10/07 01:46:06;;;;;;;2.95;2.40;;;28.80;60.60;;;;;;5055181;28;20032;-72
2021/10/07 01:48:34;;;;;;;2.78;2.22;;;28.90;60.90;;;;;;5055369;28;20386;-72
2021/10/07 01:51:01;;;;;;;2.67;2.45;;;29.10;62.40;;;;;;5055267;28;20017;-70
2021/10/07 01:53:28;;;;;;;3.65;2.63;;;29.40;61.30;;;;;;5055212;28;20029;-72
2021/10/07 01:55:56;;;;;;;3.33;1.80;;;29.50;59.00;;;;;;5055097;28;20055;-71
2021/10/07 01:58:25;;;;;;;2.92;2.00;;;29.30;59.30;;;;;;5055116;28;20124;-72
2021/10/07 02:00:52;;;;;;;3.40;2.13;;;29.50;59.40;;;;;;5059381;28;20120;-72
2021/10/07 02:03:20;;;;;;;3.25;2.00;;;29.70;59.10;;;;;;5056955;28;20028;-72
2021/10/07 02:05:47;;;;;;;3.05;1.92;;;29.70;57.30;;;;;;5075172;28;20078;-72
2021/10/07 02:08:14;;;;;;;3.42;1.85;;;29.70;57.40;;;;;;5056979;28;20020;-72
2021/10/07 02:10:42;;;;;;;2.75;1.95;;;29.90;56.80;;;;;;5074727;28;20469;-72
2021/10/07 02:13:09;;;;;;;3.83;1.90;;;29.90;57.90;;;;;;5074791;28;20099;-72
2021/10/07 02:15:36;;;;;;;3.20;2.10;;;29.90;56.90;;;;;;5074664;28;20078;-72
2021/10/07 02:18:04;;;;;;;2.72;2.03;;;30.20;56.50;;;;;;5074547;28;20027;-72
2021/10/07 02:20:31;;;;;;;2.63;2.20;;;30.30;56.60;;;;;;5074636;28;20033;-72
2021/10/07 02:22:58;;;;;;;6.20;2.65;;;30.70;57.70;;;;;;5074784;28;20040;-72
2021/10/07 02:25:26;;;;;;;2.53;2.20;;;30.60;55.30;;;;;;5074610;28;20016;-72
2021/10/07 02:27:53;;;;;;;3.78;2.50;;;30.50;53.90;;;;;;5074557;28;20127;-71
2021/10/07 02:30:20;;;;;;;2.95;2.38;;;30.10;53.90;;;;;;5056463;28;20078;-72
2021/10/07 02:32:48;;;;;;;2.40;2.20;;;30.20;55.80;;;;;;5074460;28;20107;-72
2021/10/07 02:35:16;;;;;;;2.78;2.13;;;30.40;55.70;;;;;;5075163;28;20036;-72
2021/10/07 02:37:45;;;;;;;3.50;1.80;;;30.50;54.30;;;;;;5074576;28;20099;-71
2021/10/07 02:40:13;;;;;;;2.38;1.90;;;30.80;55.50;;;;;;5074489;28;20020;-70
2021/10/07 02:42:41;;;;;;;5.07;2.00;;;30.90;55.10;;;;;;5057351;28;20445;-72
2021/10/07 02:45:11;;;;;;;5.72;2.55;;;30.50;53.90;;;;;;5074555;28;20020;-72
2021/10/07 02:47:39;;;;;;;2.75;2.10;;;30.70;54.00;;;;;;5074289;28;20020;-72
2021/10/07 02:50:08;;;;;;;2.22;1.73;;;30.90;54.50;;;;;;5074205;28;20100;-72
2021/10/07 02:52:36;;;;;;;2.70;1.85;;;30.80;54.60;;;;;;5055839;28;20053;-71
2021/10/07 02:55:04;;;;;;;2.20;2.00;;;30.80;53.90;;;;;;5074479;28;20024;-71
2021/10/07 02:57:32;;;;;;;3.17;2.00;;;31.00;55.50;;;;;;5073920;28;20020;-71
2021/10/07 02:59:59;;;;;;;4.03;2.00;;;30.90;54.50;;;;;;5074000;28;20386;-71
2021/10/07 03:02:26;;;;;;;3.40;2.15;;;31.20;54.00;;;;;;5073848;28;20045;-71
2021/10/07 03:04:54;;;;;;;3.95;2.42;;;31.50;53.70;;;;;;5073922;28;20501;-71
2021/10/07 03:07:21;;;;;;;3.35;2.70;;;31.10;51.70;;;;;;5055854;28;20077;-70
2021/10/07 03:09:48;;;;;;;5.03;2.50;;;31.10;52.60;;;;;;5073819;28;20020;-70
2021/10/07 03:12:16;;;;;;;2.90;2.70;;;31.20;52.10;;;;;;5073751;28;20073;-71
2021/10/07 03:14:45;;;;;;;2.97;2.35;;;31.40;54.30;;;;;;5073950;28;20032;-70
2021/10/07 03:17:13;;;;;;;2.70;2.28;;;31.50;53.50;;;;;;5073710;28;20020;-72
2021/10/07 03:19:40;;;;;;;3.22;2.40;;;31.80;53.60;;;;;;5055699;28;20025;-72
2021/10/07 03:22:08;;;;;;;3.05;2.40;;;31.90;52.60;;;;;;5055500;28;20021;-72
2021/10/07 03:24:36;;;;;;;4.53;2.60;;;31.90;52.70;;;;;;5073618;28;20029;-73
2021/10/07 03:27:04;;;;;;;4.93;2.28;;;32.10;52.70;;;;;;5073572;28;20491;-72
2021/10/07 03:29:32;;;;;;;4.65;2.58;;;32.00;52.10;;;;;;5055506;28;20025;-72
2021/10/07 03:31:59;;;;;;;4.47;2.40;;;31.90;51.70;;;;;;5073464;28;20149;-71
2021/10/07 03:34:27;;;;;;;5.40;2.40;;;31.70;50.70;;;;;;5055447;28;20078;-71
2021/10/07 03:36:54;;;;;;;3.33;2.50;;;31.90;51.00;;;;;;5073454;28;20107;-71
2021/10/07 03:39:22;;;;;;;5.63;2.60;;;32.00;51.20;;;;;;5073408;28;20054;-71
2021/10/07 03:41:49;;;;;;;5.53;2.58;;;31.80;51.30;;;;;;5073290;28;20021;-72
2021/10/07 03:44:16;;;;;;;3.55;2.63;;;31.60;50.40;;;;;;5073383;28;20557;-72
2021/10/07 03:46:44;;;;;;;4.82;2.60;;;31.40;50.70;;;;;;5073178;28;20073;-71
2021/10/07 03:49:11;;;;;;;3.45;2.22;;;31.60;50.20;;;;;;5055121;28;20020;-72
2021/10/07 03:51:39;;;;;;;5.78;2.25;;;31.80;51.10;;;;;;5073264;28;20438;-72
2021/10/07 03:54:06;;;;;;;6.15;2.30;;;31.60;49.90;;;;;;5073176;28;20059;-72
2021/10/07 03:56:34;;;;;;;7.43;2.88;;;31.70;50.30;;;;;;5055195;28;20039;-72
2021/10/07 03:59:01;;;;;;;4.97;2.40;;;31.60;51.00;;;;;;5073018;28;20027;-72
2021/10/07 04:01:28;;;;;;;4.53;2.50;;;31.50;50.10;;;;;;5054855;28;20048;-72
2021/10/07 04:03:55;;;;;;;4.88;2.80;;;31.70;50.10;;;;;;5072868;28;20040;-73
2021/10/07 04:06:23;;;;;;;4.55;2.72;;;31.80;49.50;;;;;;5055053;28;20025;-72
2021/10/07 04:08:50;;;;;;;5.10;2.45;;;31.80;49.60;;;;;;5054879;28;20103;-72
2021/10/07 04:11:19;;;;;;;6.60;2.65;;;31.60;49.90;;;;;;5054911;28;20052;-71
2021/10/07 04:13:47;;;;;;;6.13;2.60;;;31.70;49.80;;;;;;5054943;28;20436;-72
2021/10/07 04:16:15;;;;;;;6.43;2.70;;;31.60;50.10;;;;;;5073151;28;20032;-72
2021/10/07 04:18:44;;;;;;;4.97;2.70;;;31.50;49.60;;;;;;5073000;28;20021;-71
2021/10/07 04:21:12;;;;;;;6.57;3.00;;;31.60;50.40;;;;;;5072930;28;20108;-71
2021/10/07 04:23:39;;;;;;;9.85;2.90;;;31.50;50.10;;;;;;5072982;28;20048;-71
2021/10/07 04:26:07;;;;;;;10.38;3.50;;;31.60;50.20;;;;;;5073006;28;20020;-71
2021/10/07 04:28:36;;;;;;;5.90;2.80;;;31.40;49.60;;;;;;5072946;28;20020;-71
2021/10/07 04:31:03;;;;;;;6.40;2.92;;;31.50;50.40;;;;;;5072822;28;20035;-71
2021/10/07 04:33:30;;;;;;;7.35;3.00;;;31.40;49.90;;;;;;5072753;28;20025;-71
2021/10/07 04:35:58;;;;;;;6.43;2.83;;;31.30;49.90;;;;;;5054744;28;20392;-72
2021/10/07 04:38:25;;;;;;;6.07;3.00;;;31.20;49.00;;;;;;5072897;28;20032;-71
2021/10/07 04:40:52;;;;;;;6.70;2.70;;;31.20;49.20;;;;;;5072713;28;20025;-71
2021/10/07 04:43:20;;;;;;;6.20;3.05;;;31.10;49.50;;;;;;5072929;28;20021;-71
2021/10/07 04:45:47;;;;;;;7.50;3.60;;;31.30;50.00;;;;;;5054701;28;20017;-71
2021/10/07 04:48:15;;;;;;;7.32;3.10;;;31.20;49.80;;;;;;5054563;28;20032;-70
2021/10/07 04:50:42;;;;;;;9.82;3.00;;;31.20;49.70;;;;;;5072516;28;20024;-73
2021/10/07 04:53:09;;;;;;;11.00;2.92;;;31.20;50.70;;;;;;5054544;28;20032;-72
2021/10/07 04:55:37;;;;;;;6.50;3.22;;;31.20;49.40;;;;;;5054591;28;20032;-73
2021/10/07 04:58:04;;;;;;;6.85;2.80;;;31.20;49.90;;;;;;5054710;28;20116;-73
2021/10/07 05:00:31;;;;;;;7.18;2.90;;;31.30;50.20;;;;;;5054181;28;20035;-74
2021/10/07 05:02:59;;;;;;;8.73;2.90;;;31.50;50.70;;;;;;5054669;28;20025;-73
2021/10/07 05:05:26;;;;;;;9.55;2.90;;;31.60;49.70;;;;;;5054683;28;20397;-74
2021/10/07 05:07:54;;;;;;;10.18;3.08;;;31.40;49.20;;;;;;5072919;28;20017;-74
2021/10/07 05:10:21;;;;;;;11.45;2.85;;;31.30;49.60;;;;;;5072680;28;20028;-73
2021/10/07 05:12:48;;;;;;;7.38;2.58;;;31.40;49.50;;;;;;5072823;28;20039;-73
2021/10/07 05:15:16;;;;;;;8.70;2.78;;;31.20;49.60;;;;;;5072655;28;20048;-73
2021/10/07 05:17:43;;;;;;;6.85;3.03;;;31.30;49.70;;;;;;5075009;28;20017;-73
2021/10/07 05:20:11;;;;;;;10.80;3.50;;;31.20;49.60;;;;;;5057889;28;20103;-73
2021/10/07 05:22:38;;;;;;;5.93;2.95;;;31.30;49.60;;;;;;5076275;28;20027;-74
2021/10/07 05:25:06;;;;;;;9.30;3.33;;;31.20;49.20;;;;;;5057947;28;20496;-74
2021/10/07 05:27:33;;;;;;;10.50;3.03;;;30.90;49.50;;;;;;5075925;28;20028;-74
2021/10/07 05:30:01;;;;;;;7.80;3.25;;;30.80;49.90;;;;;;5075977;28;20028;-74
2021/10/07 05:32:28;;;;;;;11.23;3.22;;;30.90;50.00;;;;;;5057882;28;20029;-74
2021/10/07 05:34:56;;;;;;;8.52;2.95;;;30.90;49.70;;;;;;5075797;28;20031;-74
2021/10/07 05:37:24;;;;;;;10.85;3.20;;;30.80;50.10;;;;;;5075766;28;20071;-74
2021/10/07 05:39:51;;;;;;;7.72;3.40;;;30.80;50.20;;;;;;5057544;28;20106;-73
2021/10/07 05:42:18;;;;;;;8.07;3.10;;;30.90;50.10;;;;;;5075621;28;20028;-77
2021/10/07 05:44:46;;;;;;;8.07;3.80;;;31.00;50.20;;;;;;5075663;28;20118;-74
2021/10/07 05:47:13;;;;;;;11.32;3.30;;;30.90;49.90;;;;;;5075600;28;20100;-75
2021/10/07 05:49:40;;;;;;;11.07;3.40;;;30.70;50.20;;;;;;5075543;28;20066;-74
2021/10/07 05:52:08;;;;;;;9.25;3.10;;;30.70;49.90;;;;;;5075672;28;20056;-74
2021/10/07 05:54:35;;;;;;;9.63;2.70;;;30.90;50.70;;;;;;5057544;28;20050;-74
2021/10/07 05:57:04;;;;;;;6.80;3.75;;;30.90;51.00;;;;;;5075338;28;20108;-74
2021/10/07 05:59:32;;;;;;;8.73;3.10;;;30.80;50.10;;;;;;5075421;28;20016;-73
2021/10/07 06:01:59;;;;;;;11.18;3.08;;;30.50;49.80;;;;;;5075179;28;20086;-74
2021/10/07 06:04:27;;;;;;;14.55;4.50;;;30.50;50.20;;;;;;5075158;28;20078;-75
2021/10/07 06:06:54;;;;;;;19.75;5.80;;;29.70;59.20;;;;;;5075150;28;20104;-74
2021/10/07 06:09:21;;;;;;;17.10;6.10;;;28.10;66.30;;;;;;5075339;28;20017;-74
2021/10/07 06:11:49;;;;;;;18.45;6.88;;;27.20;69.90;;;;;;5075092;28;20535;-75
2021/10/07 06:14:17;;;;;;;19.23;6.00;;;26.10;74.10;;;;;;5074828;28;20052;-74
2021/10/07 06:16:45;;;;;;;21.95;6.90;;;25.20;78.80;;;;;;5075087;28;20111;-74
2021/10/07 06:19:16;;;;;;;34.38;7.78;;;24.60;83.20;;;;;;5056799;28;20060;-74
2021/10/07 06:21:43;;;;;;;23.38;7.25;;;24.60;84.70;;;;;;5056808;28;20029;-73
2021/10/07 06:24:10;;;;;;;26.65;7.60;;;24.00;89.30;;;;;;5056748;28;20028;-73
2021/10/07 06:26:39;;;;;;;31.38;8.20;;;23.70;91.40;;;;;;5056778;28;20022;-73
2021/10/07 06:29:07;;;;;;;29.23;8.05;;;22.90;93.70;;;;;;5074699;28;20032;-73
2021/10/07 06:31:34;;;;;;;30.95;7.78;;;22.70;95.50;;;;;;5074668;28;20027;-74
2021/10/07 06:34:02;;;;;;;29.58;8.32;;;22.40;97.50;;;;;;5074715;28;20029;-72
2021/10/07 06:36:29;;;;;;;36.47;9.13;;;22.00;99.90;;;;;;5074620;28;20539;-71
2021/10/07 06:38:56;;;;;;;32.85;8.45;;;21.60;99.90;;;;;;5074404;28;20021;-72
2021/10/07 06:41:24;;;;;;;40.13;9.38;;;21.30;99.90;;;;;;5074484;28;20029;-72
2021/10/07 06:43:51;;;;;;;34.80;8.82;;;21.10;99.90;;;;;;5056348;28;20021;-71
2021/10/07 06:46:19;;;;;;;29.60;7.97;;;21.00;99.90;;;;;;5074363;28;20394;-71
2021/10/07 06:48:46;;;;;;;32.63;8.77;;;21.10;99.90;;;;;;5074011;28;20153;-71
2021/10/07 06:51:14;;;;;;;35.92;9.55;;;20.80;99.90;;;;;;5073944;28;20449;-71
2021/10/07 06:53:42;;;;;;;32.15;8.98;;;20.70;99.90;;;;;;5074639;28;20074;-72
2021/10/07 06:56:09;;;;;;;34.47;9.30;;;20.50;99.90;;;;;;5056243;28;20409;-73
2021/10/07 06:58:37;;;;;;;34.35;9.13;;;20.50;99.90;;;;;;5074154;28;20024;-73
2021/10/07 07:01:04;;;;;;;30.70;8.27;;;20.40;99.90;;;;;;5074104;28;20049;-73
2021/10/07 07:03:31;;;;;;;31.75;7.30;;;20.30;99.90;;;;;;5056731;28;20357;-73
2021/10/07 07:05:59;;;;;;;28.45;7.93;;;20.50;99.90;;;;;;5074056;28;20358;-74
2021/10/07 07:08:26;;;;;;;30.42;8.52;;;20.40;99.90;;;;;;5073994;28;20029;-74
2021/10/07 07:10:53;;;;;;;35.38;8.10;;;20.40;99.90;;;;;;5073833;28;20021;-73
2021/10/07 07:13:21;;;;;;;39.60;8.35;;;20.50;99.90;;;;;;5056042;28;20029;-74
2021/10/07 07:15:48;;;;;;;29.55;8.27;;;20.20;99.90;;;;;;5055805;28;20112;-73
2021/10/07 07:18:15;;;;;;;27.85;7.25;;;19.90;99.90;;;;;;5055887;28;20530;-73
2021/10/07 07:20:43;;;;;;;30.38;8.30;;;19.70;99.90;;;;;;5073547;28;20048;-73
2021/10/07 07:23:10;;;;;;;23.95;7.30;;;19.60;99.90;;;;;;5073618;28;20028;-72
2021/10/07 07:25:38;;;;;;;32.72;8.23;;;19.50;99.90;;;;;;5055625;28;20020;-73
2021/10/07 07:28:06;;;;;;;23.95;7.93;;;19.40;99.90;;;;;;5073554;28;20055;-73
2021/10/07 07:30:33;;;;;;;24.48;7.82;;;19.20;99.90;;;;;;5073784;28;20206;-73
2021/10/07 07:33:01;;;;;;;21.45;7.03;;;19.10;99.90;;;;;;5055416;28;20594;-73
2021/10/07 07:35:33;;;;;;;30.05;7.90;;;19.00;99.90;;;;;;5073381;28;20056;-73
2021/10/07 07:38:06;;;;;;;24.17;7.20;;;18.90;99.90;;;;;;5055539;28;20106;-74
2021/10/07 07:40:34;;;;;;;28.45;7.20;;;19.10;99.90;;;;;;5072756;28;20056;-73
2021/10/07 07:43:01;;;;;;;29.38;8.00;;;18.80;99.90;;;;;;5073240;28;20021;-73
2021/10/07 07:45:29;;;;;;;23.35;7.88;;;18.90;99.90;;;;;;5073392;28;20020;-73
2021/10/07 07:47:57;;;;;;;30.63;7.88;;;18.80;99.90;;;;;;5073117;28;20074;-71
2021/10/07 07:50:25;;;;;;;26.40;7.18;;;18.80;99.90;;;;;;5073338;28;20187;-73
2021/10/07 07:52:53;;;;;;;23.88;7.20;;;18.60;99.90;;;;;;5073225;28;20021;-73
2021/10/07 07:55:21;;;;;;;27.00;7.68;;;18.50;99.90;;;;;;5073158;28;20024;-72
2021/10/07 07:57:48;;;;;;;26.15;6.35;;;18.50;99.90;;;;;;5072927;28;20145;-71
2021/10/07 08:00:16;;;;;;;29.48;7.28;;;18.40;99.90;;;;;;5072904;28;20051;-71
2021/10/07 08:02:43;;;;;;;29.10;6.97;;;18.40;99.90;;;;;;5072884;28;20055;-71
2021/10/07 08:05:11;;;;;;;27.15;7.63;;;18.30;99.90;;;;;;5072913;28;20066;-70
2021/10/07 08:07:38;;;;;;;29.40;7.22;;;18.20;99.90;;;;;;5054960;28;20031;-71
2021/10/07 08:10:06;;;;;;;25.35;7.85;;;18.10;99.90;;;;;;5073153;28;20021;-72
2021/10/07 08:12:34;;;;;;;29.75;8.38;;;18.10;99.90;;;;;;5073052;28;20021;-70
2021/10/07 08:15:04;;;;;;;23.77;7.15;;;18.00;99.90;;;;;;5072944;28;20481;-70
2021/10/07 08:17:31;;;;;;;32.43;8.30;;;18.00;99.90;;;;;;5072927;28;20133;-71
2021/10/07 08:19:58;;;;;;;25.00;6.32;;;17.80;99.90;;;;;;5054903;28;20258;-71
2021/10/07 08:22:25;;;;;;;28.20;7.68;;;;;;;;;;5072708;28;20385;-74
2021/10/07 08:24:53;;;;;;;29.52;7.32;;;17.70;99.90;;;;;;5072960;28;20048;-73
2021/10/07 08:27:23;;;;;;;25.88;6.68;;;17.80;99.90;;;;;;5073254;28;20046;-71
2021/10/07 08:29:50;;;;;;;29.17;7.03;;;17.80;99.90;;;;;;5072988;28;20031;-72
2021/10/07 08:32:17;;;;;;;23.92;6.70;;;17.80;99.90;;;;;;5054669;28;20037;-72
2021/10/07 08:34:45;;;;;;;33.80;8.35;;;17.70;99.90;;;;;;5054858;28;20063;-72
2021/10/07 08:37:12;;;;;;;26.90;7.38;;;17.70;99.90;;;;;;5054615;28;20043;-74
2021/10/07 08:39:39;;;;;;;26.85;7.93;;;17.60;99.90;;;;;;5054613;28;20028;-74
2021/10/07 08:42:07;;;;;;;22.95;7.35;;;17.60;99.90;;;;;;5072558;28;20056;-73
2021/10/07 08:44:34;;;;;;;25.88;7.32;;;17.60;99.90;;;;;;5072774;28;20013;-72
2021/10/07 08:47:01;;;;;;;20.75;6.82;;;17.50;99.90;;;;;;5072620;28;20028;-72
2021/10/07 08:49:35;;;;;;;30.83;7.57;;;17.60;99.90;;;;;;5072470;28;20370;-73
2021/10/07 08:52:03;;;;;;;22.23;7.72;;;17.60;99.90;;;;;;5074245;28;20103;-73
2021/10/07 08:54:33;;;;;;;27.88;7.30;;;17.50;99.90;;;;;;5058427;28;20027;-72
2021/10/07 08:57:02;;;;;;;33.95;8.25;;;17.40;99.90;;;;;;5076445;28;20443;-73
2021/10/07 08:59:29;;;;;;;24.08;7.38;;;17.60;99.90;;;;;;5076249;28;20028;-72
2021/10/07 09:02:18;;;;;;;25.08;7.00;;;17.50;99.90;;;;;;5076172;28;20050;-72
2021/10/07 09:04:44;;;;;;;23.05;6.80;;;17.40;99.90;;;;;;5075520;28;20041;-74
2021/10/07 09:07:12;;;;;;;23.75;7.60;;;17.40;99.90;;;;;;5058333;28;20481;-71
2021/10/07 09:09:42;;;;;;;30.02;8.75;;;17.40;99.90;;;;;;5076275;28;20021;-72
2021/10/07 09:12:12;;;;;;;23.98;6.38;;;17.50;99.90;;;;;;5058093;28;20031;-72
2021/10/07 09:14:51;;;;;;;26.38;7.10;;;17.50;99.90;;;;;;5076161;28;20500;-72
2021/10/07 09:17:21;;;;;;;21.50;7.03;;;17.50;99.90;;;;;;5057923;28;20028;-70
2021/10/07 09:19:50;;;;;;;20.52;8.90;;;17.60;99.90;;;;;;5058012;28;20043;-72
2021/10/07 09:22:20;;;;;;;31.02;6.72;;;17.60;99.90;;;;;;5057942;28;20114;-72
2021/10/07 09:24:52;;;;;;;22.90;6.93;;;17.60;99.90;;;;;;5057723;28;20032;-74
2021/10/07 09:27:30;;;;;;;29.13;6.72;;;17.60;99.90;;;;;;5075803;28;20025;-72
2021/10/07 09:30:02;;;;;;;22.42;6.63;;;17.60;99.90;;;;;;5057827;28;20027;-72
2021/10/07 09:32:47;;;;;;;23.40;6.28;;;17.60;99.90;;;;;;5057865;28;20484;-72
2021/10/07 09:35:17;;;;;;;23.23;7.40;;;17.70;99.90;;;;;;5075806;28;20036;-72
2021/10/07 09:37:47;;;;;;;23.73;6.85;;;17.70;99.90;;;;;;5057544;28;20118;-73
2021/10/07 09:40:23;;;;;;;22.65;6.88;;;17.70;99.90;;;;;;5075885;28;20170;-73
2021/10/07 09:42:54;;;;;;;26.25;6.72;;;17.70;99.90;;;;;;5075541;28;20023;-73
2021/10/07 09:45:26;;;;;;;23.02;6.30;;;17.70;99.90;;;;;;5057784;28;20538;-73
2021/10/07 09:48:00;;;;;;;20.48;7.07;;;17.80;99.90;;;;;;5075396;28;20024;-73
2021/10/07 09:50:44;;;;;;;25.33;7.07;;;17.70;99.90;;;;;;5075346;28;20020;-73
2021/10/07 09:53:17;;;;;;;26.20;6.20;;;17.60;99.90;;;;;;5057930;28;20365;-72
2021/10/07 09:55:49;;;;;;;25.48;6.72;;;17.60;99.90;;;;;;5075303;28;20061;-73
2021/10/07 09:58:22;;;;;;;23.95;6.47;;;17.50;99.90;;;;;;5075392;28;20032;-72
2021/10/07 10:00:55;;;;;;;26.35;6.78;;;17.50;99.90;;;;;;5056981;28;20559;-73
2021/10/07 10:03:26;;;;;;;24.23;6.60;;;17.50;99.90;;;;;;5056786;28;20028;-73
2021/10/07 10:05:54;;;;;;;23.38;6.90;;;17.50;99.90;;;;;;5057062;28;20074;-74
2021/10/07 10:08:32;;;;;;;20.73;5.72;;;17.50;99.90;;;;;;5075084;28;20438;-73
2021/10/07 10:11:01;;;;;;;21.67;5.70;;;17.50;99.90;;;;;;5058662;28;20028;-73
2021/10/07 10:13:32;;;;;;;25.27;7.18;;;17.50;99.90;;;;;;5056773;28;20028;-72
2021/10/07 10:16:00;;;;;;;17.55;6.05;;;17.50;99.90;;;;;;5075120;28;20027;-73
2021/10/07 10:18:31;;;;;;;23.48;6.15;;;17.60;99.90;;;;;;5075072;28;20017;-73
2021/10/07 10:21:01;;;;;;;20.52;7.00;;;17.50;99.90;;;;;;5056868;28;20370;-73
2021/10/07 10:23:32;;;;;;;22.33;7.38;;;17.50;99.90;;;;;;5075073;28;20432;-73
2021/10/07 10:26:09;;;;;;;24.85;6.82;;;17.50;99.90;;;;;;5074838;28;20477;-73
2021/10/07 10:28:49;;;;;;;23.95;6.18;;;17.50;99.90;;;;;;5074528;28;20099;-72
2021/10/07 10:31:39;;;;;;;24.63;6.18;;;17.60;99.90;;;;;;5074715;28;20028;-73
2021/10/07 10:34:15;;;;;;;20.85;6.35;;;17.50;99.90;;;;;;5074638;28;20031;-73
2021/10/07 10:36:47;;;;;;;21.77;6.03;;;17.50;99.90;;;;;;5074668;28;20024;-72
2021/10/07 10:39:26;;;;;;;21.33;5.53;;;17.50;99.90;;;;;;5074597;28;20028;-72
2021/10/07 10:41:59;;;;;;;22.90;7.20;;;17.40;99.90;;;;;;5074510;28;20032;-73
2021/10/07 10:44:31;;;;;;;23.13;6.18;;;17.40;99.90;;;;;;5074383;28;20462;-73
2021/10/07 10:47:08;;;;;;;21.63;6.25;;;17.40;99.90;;;;;;5074356;28;20095;-73
2021/10/07 10:49:53;;;;;;;25.73;7.25;;;17.40;99.90;;;;;;5074306;28;20439;-73
2021/10/07 10:52:49;;;;;;;21.17;5.85;;;17.40;99.90;;;;;;5056631;28;20024;-74
2021/10/07 10:55:21;;;;;;;21.33;6.60;;;17.40;99.90;;;;;;5074290;28;20028;-74
2021/10/07 10:57:52;;;;;;;19.90;6.03;;;17.40;99.90;;;;;;5074174;28;20389;-74
2021/10/07 11:00:30;;;;;;;23.95;6.40;;;17.40;99.90;;;;;;5056237;28;20024;-74
2021/10/07 11:03:15;;;;;;;24.98;6.88;;;17.40;99.90;;;;;;5056020;28;20044;-74
2021/10/07 11:06:03;;;;;;;21.70;6.38;;;17.50;99.90;;;;;;5073915;28;20027;-74
2021/10/07 11:08:42;;;;;;;30.10;6.28;;;17.30;99.90;;;;;;5055955;28;20073;-73
2021/10/07 11:11:22;;;;;;;25.65;7.43;;;17.30;99.90;;;;;;5055848;28;20021;-73
2021/10/07 11:13:51;;;;;;;22.15;6.05;;;17.30;99.90;;;;;;5055284;28;20025;-73
2021/10/07 11:16:28;;;;;;;26.67;7.13;;;17.30;99.90;;;;;;5073668;28;20170;-72
2021/10/07 11:18:55;;;;;;;20.95;7.80;;;17.30;99.90;;;;;;5073786;28;20101;-72
2021/10/07 11:21:23;;;;;;;28.00;6.60;;;17.30;99.90;;;;;;5053938;28;20041;-72
2021/10/07 11:23:54;;;;;;;21.83;6.93;;;17.40;99.90;;;;;;5073669;28;20025;-72
2021/10/07 11:26:36;;;;;;;24.63;7.60;;;17.40;99.90;;;;;;5073602;28;20473;-72
2021/10/07 11:29:08;;;;;;;18.27;6.25;;;17.40;99.90;;;;;;5055531;28;20389;-73
2021/10/07 11:31:45;;;;;;;23.33;7.32;;;17.40;99.90;;;;;;5055865;28;20025;-73
2021/10/07 11:34:12;;;;;;;27.05;6.70;;;17.30;99.90;;;;;;5073331;28;20385;-72
2021/10/07 11:36:40;;;;;;;22.00;6.82;;;17.30;99.90;;;;;;5073319;28;20388;-73
2021/10/07 11:39:07;;;;;;;22.90;6.50;;;17.40;99.90;;;;;;5055348;28;20119;-73
2021/10/07 11:41:35;;;;;;;23.55;6.65;;;17.30;99.90;;;;;;5055179;28;20310;-72
2021/10/07 11:44:04;;;;;;;17.05;5.40;;;17.40;99.90;;;;;;5073370;28;20066;-73
2021/10/07 11:46:36;;;;;;;18.67;5.63;;;17.40;99.90;;;;;;5073294;28;20025;-73
2021/10/07 11:49:04;;;;;;;23.27;6.35;;;17.40;99.90;;;;;;5055191;28;20428;-73
2021/10/07 11:51:32;;;;;;;29.42;6.28;;;17.30;99.90;;;;;;5073003;28;20389;-72
2021/10/07 11:54:04;;;;;;;19.67;5.78;;;17.30;99.90;;;;;;5073148;28;20028;-72
2021/10/07 11:56:33;;;;;;;20.13;5.85;;;17.30;99.90;;;;;;5055122;28;20032;-73
2021/10/07 11:59:01;;;;;;;18.05;6.32;;;;;;;;;;5072918;28;20020;-72
2021/10/07 12:01:38;;;;;;;23.52;6.63;;;;;;;;;;5054673;28;20040;-72
2021/10/07 12:04:07;;;;;;;18.45;5.03;;;17.10;99.90;;;;;;5073032;28;20055;-72
2021/10/07 12:06:35;;;;;;;19.40;6.05;;;;;;;;;;5054928;28;20137;-72
2021/10/07 12:09:09;;;;;;;23.42;6.57;;;17.20;99.90;;;;;;5072998;28;20093;-72
2021/10/07 12:11:37;;;;;;;23.48;6.22;;;17.20;99.90;;;;;;5073220;28;20017;-72
2021/10/07 12:14:05;;;;;;;20.15;6.03;;;17.20;99.90;;;;;;5072928;28;20421;-72
2021/10/07 12:16:40;;;;;;;18.20;5.93;;;;;;;;;;5072800;28;20047;-72
2021/10/07 12:19:18;;;;;;;24.92;6.30;;;;;;;;;;5054679;28;20052;-72
2021/10/07 12:21:55;;;;;;;18.63;6.88;;;;;;;;;;5072871;28;20090;-72
2021/10/07 12:24:25;;;;;;;21.17;7.30;;;17.10;99.90;;;;;;5072769;28;20101;-71
2021/10/07 12:26:55;;;;;;;18.48;6.07;;;17.10;99.90;;;;;;5057822;28;20027;-71
2021/10/07 12:29:25;;;;;;;16.98;5.85;;;17.10;99.90;;;;;;5076822;28;20039;-72
2021/10/07 12:32:07;;;;;;;19.90;5.93;;;17.20;99.90;;;;;;5077006;28;20021;-72
2021/10/07 12:34:35;;;;;;;18.27;5.60;;;17.20;99.90;;;;;;5059113;28;20056;-72
2021/10/07 12:37:06;;;;;;;17.15;5.35;;;17.10;99.90;;;;;;5076794;28;20035;-72
2021/10/07 12:39:38;;;;;;;18.67;6.55;;;17.20;99.90;;;;;;5077090;28;20051;-72
2021/10/07 12:42:12;;;;;;;22.05;5.85;;;17.20;99.90;;;;;;5076891;28;20040;-72
2021/10/07 12:44:47;;;;;;;16.30;5.13;;;17.10;99.90;;;;;;5058627;28;20024;-72
2021/10/07 12:47:27;;;;;;;19.73;5.78;;;17.10;99.90;;;;;;5076448;28;20088;-73
2021/10/07 12:49:57;;;;;;;13.18;6.45;;;17.10;99.90;;;;;;5076804;28;20028;-72
2021/10/07 12:52:37;;;;;;;14.57;5.95;;;17.10;99.90;;;;;;5076611;28;20032;-72
2021/10/07 12:55:09;;;;;;;15.02;5.57;;;17.10;99.90;;;;;;5058555;28;20118;-72